sensor_id;sensor_type;location;lat;lon;timestamp;P1;durP1;ratioP1;P2;durP2;ratioP2
19903;SDS011;10114;50.970;4.962;2023-06-26T00:02:21;10.18;;;4.85;;
19903;SDS011;10114;50.970;4.962;2023-06-26T00:04:47;7.65;;;4.25;;
19903;SDS011;10114;50.970;4.962;2023-06-26T00:07:13;7.25;;;4.22;;
19903;SDS011;10114;50.970;4.962;2023-06-26T00:09:39;12.18;;;4.57;;
19903;SDS011;10114;50.970;4.962;2023-06-26T00:12:06;7.30;;;4.72;;
19903;SDS011;10114;50.970;4.962;2023-06-26T00:14:32;6.55;;;3.83;;
19903;SDS011;10114;50.970;4.962;2023-06-26T00:16:58;8.38;;;4.88;;
19903;SDS011;10114;50.970;4.962;2023-06-26T00:19:24;10.48;;;4.60;;
19903;SDS011;10114;50.970;4.962;2023-06-26T00:21:50;9.10;;;4.68;;
19903;SDS011;10114;50.970;4.962;2023-06-26T00:24:17;8.20;;;4.30;;
19903;SDS011;10114;50.970;4.962;2023-06-26T00:26:45;6.70;;;3.45;;
19903;SDS011;10114;50.970;4.962;2023-06-26T00:29:11;9.77;;;3.70;;
19903;SDS011;10114;50.970;4.962;2023-06-26T00:31:37;7.18;;;4.22;;
19903;SDS011;10114;50.970;4.962;2023-06-26T00:34:05;7.63;;;3.78;;
19903;SDS011;10114;50.970;4.962;2023-06-26T00:36:31;8.65;;;3.83;;
19903;SDS011;10114;50.970;4.962;2023-06-26T00:38:57;10.63;;;4.53;;
19903;SDS011;10114;50.970;4.962;2023-06-26T00:41:23;6.28;;;3.65;;
19903;SDS011;10114;50.970;4.962;2023-06-26T00:43:49;9.43;;;4.95;;
19903;SDS011;10114;50.970;4.962;2023-06-26T00:46:16;11.32;;;4.03;;
19903;SDS011;10114;50.970;4.962;2023-06-26T00:48:43;7.63;;;3.97;;
19903;SDS011;10114;50.970;4.962;2023-06-26T00:51:10;11.18;;;4.00;;
19903;SDS011;10114;50.970;4.962;2023-06-26T00:53:36;9.07;;;3.65;;
19903;SDS011;10114;50.970;4.962;2023-06-26T00:56:02;6.88;;;3.35;;
19903;SDS011;10114;50.970;4.962;2023-06-26T00:58:28;10.32;;;3.83;;
19903;SDS011;10114;50.970;4.962;2023-06-26T01:00:54;9.73;;;3.67;;
19903;SDS011;10114;50.970;4.962;2023-06-26T01:03:22;10.48;;;4.38;;
19903;SDS011;10114;50.970;4.962;2023-06-26T01:05:48;8.48;;;4.70;;
19903;SDS011;10114;50.970;4.962;2023-06-26T01:08:16;7.00;;;4.00;;
19903;SDS011;10114;50.970;4.962;2023-06-26T01:10:42;7.70;;;4.00;;
19903;SDS011;10114;50.970;4.962;2023-06-26T01:13:08;8.43;;;3.95;;
19903;SDS011;10114;50.970;4.962;2023-06-26T01:15:34;7.38;;;4.28;;
19903;SDS011;10114;50.970;4.962;2023-06-26T01:18:00;7.00;;;3.88;;
19903;SDS011;10114;50.970;4.962;2023-06-26T01:20:28;8.20;;;4.32;;
19903;SDS011;10114;50.970;4.962;2023-06-26T01:23:03;7.63;;;4.07;;
19903;SDS011;10114;50.970;4.962;2023-06-26T01:28:06;7.88;;;4.18;;
19903;SDS011;10114;50.970;4.962;2023-06-26T01:30:34;7.97;;;4.10;;
19903;SDS011;10114;50.970;4.962;2023-06-26T01:33:00;8.32;;;4.13;;
19903;SDS011;10114;50.970;4.962;2023-06-26T01:35:27;9.70;;;4.40;;
19903;SDS011;10114;50.970;4.962;2023-06-26T01:38:10;7.93;;;3.97;;
19903;SDS011;10114;50.970;4.962;2023-06-26T01:40:36;9.93;;;3.72;;
19903;SDS011;10114;50.970;4.962;2023-06-26T01:43:02;9.40;;;4.70;;
19903;SDS011;10114;50.970;4.962;2023-06-26T01:45:29;13.82;;;3.92;;
19903;SDS011;10114;50.970;4.962;2023-06-26T01:47:57;9.38;;;3.88;;
19903;SDS011;10114;50.970;4.962;2023-06-26T01:50:26;8.63;;;3.55;;
19903;SDS011;10114;50.970;4.962;2023-06-26T01:57:45;8.45;;;3.75;;
19903;SDS011;10114;50.970;4.962;2023-06-26T02:00:13;9.85;;;3.67;;
19903;SDS011;10114;50.970;4.962;2023-06-26T02:02:42;9.18;;;3.10;;
19903;SDS011;10114;50.970;4.962;2023-06-26T02:05:08;9.80;;;3.92;;
19903;SDS011;10114;50.970;4.962;2023-06-26T02:07:34;7.82;;;2.95;;
19903;SDS011;10114;50.970;4.962;2023-06-26T02:10:00;10.15;;;3.42;;
19903;SDS011;10114;50.970;4.962;2023-06-26T02:12:26;8.80;;;3.47;;
19903;SDS011;10114;50.970;4.962;2023-06-26T02:14:52;9.15;;;3.38;;
19903;SDS011;10114;50.970;4.962;2023-06-26T02:17:18;8.93;;;3.72;;
19903;SDS011;10114;50.970;4.962;2023-06-26T02:19:44;14.02;;;3.50;;
19903;SDS011;10114;50.970;4.962;2023-06-26T02:22:13;8.25;;;3.70;;
19903;SDS011;10114;50.970;4.962;2023-06-26T02:24:40;7.32;;;3.33;;
19903;SDS011;10114;50.970;4.962;2023-06-26T02:27:06;7.55;;;3.38;;
19903;SDS011;10114;50.970;4.962;2023-06-26T02:29:32;7.82;;;3.38;;
19903;SDS011;10114;50.970;4.962;2023-06-26T02:31:58;9.32;;;3.28;;
19903;SDS011;10114;50.970;4.962;2023-06-26T02:34:24;7.72;;;3.17;;
19903;SDS011;10114;50.970;4.962;2023-06-26T02:36:50;9.88;;;3.42;;
19903;SDS011;10114;50.970;4.962;2023-06-26T02:39:19;9.00;;;3.88;;
19903;SDS011;10114;50.970;4.962;2023-06-26T02:41:45;6.80;;;3.58;;
19903;SDS011;10114;50.970;4.962;2023-06-26T02:44:11;8.48;;;3.03;;
19903;SDS011;10114;50.970;4.962;2023-06-26T02:46:39;9.45;;;3.13;;
19903;SDS011;10114;50.970;4.962;2023-06-26T02:49:05;7.97;;;3.30;;
19903;SDS011;10114;50.970;4.962;2023-06-26T02:51:32;8.25;;;3.05;;
19903;SDS011;10114;50.970;4.962;2023-06-26T02:53:58;8.27;;;3.58;;
19903;SDS011;10114;50.970;4.962;2023-06-26T02:56:24;8.85;;;3.15;;
19903;SDS011;10114;50.970;4.962;2023-06-26T02:58:53;7.38;;;3.30;;
19903;SDS011;10114;50.970;4.962;2023-06-26T03:01:19;6.05;;;3.20;;
19903;SDS011;10114;50.970;4.962;2023-06-26T03:03:46;7.28;;;3.38;;
19903;SDS011;10114;50.970;4.962;2023-06-26T03:06:12;8.50;;;3.53;;
19903;SDS011;10114;50.970;4.962;2023-06-26T03:08:38;9.23;;;4.05;;
19903;SDS011;10114;50.970;4.962;2023-06-26T03:11:05;7.65;;;3.50;;
19903;SDS011;10114;50.970;4.962;2023-06-26T03:13:31;9.70;;;3.65;;
19903;SDS011;10114;50.970;4.962;2023-06-26T03:15:57;8.98;;;3.40;;
19903;SDS011;10114;50.970;4.962;2023-06-26T03:18:23;6.43;;;3.28;;
19903;SDS011;10114;50.970;4.962;2023-06-26T03:20:49;6.60;;;3.03;;
19903;SDS011;10114;50.970;4.962;2023-06-26T03:23:15;9.57;;;2.90;;
19903;SDS011;10114;50.970;4.962;2023-06-26T03:25:42;12.05;;;3.85;;
19903;SDS011;10114;50.970;4.962;2023-06-26T03:28:08;9.65;;;3.25;;
19903;SDS011;10114;50.970;4.962;2023-06-26T03:30:34;8.50;;;3.17;;
19903;SDS011;10114;50.970;4.962;2023-06-26T03:33:00;11.65;;;3.58;;
19903;SDS011;10114;50.970;4.962;2023-06-26T03:35:26;8.20;;;3.20;;
19903;SDS011;10114;50.970;4.962;2023-06-26T03:37:52;10.55;;;3.60;;
19903;SDS011;10114;50.970;4.962;2023-06-26T03:40:18;9.95;;;3.33;;
19903;SDS011;10114;50.970;4.962;2023-06-26T03:42:44;7.00;;;3.00;;
19903;SDS011;10114;50.970;4.962;2023-06-26T03:45:10;11.40;;;3.33;;
19903;SDS011;10114;50.970;4.962;2023-06-26T03:47:36;11.60;;;3.65;;
19903;SDS011;10114;50.970;4.962;2023-06-26T03:50:02;10.45;;;4.05;;
19903;SDS011;10114;50.970;4.962;2023-06-26T03:52:28;9.75;;;3.45;;
19903;SDS011;10114;50.970;4.962;2023-06-26T03:54:56;11.45;;;3.63;;
19903;SDS011;10114;50.970;4.962;2023-06-26T03:57:22;10.45;;;3.42;;
19903;SDS011;10114;50.970;4.962;2023-06-26T03:59:48;7.40;;;3.47;;
19903;SDS011;10114;50.970;4.962;2023-06-26T04:02:14;8.07;;;3.70;;
19903;SDS011;10114;50.970;4.962;2023-06-26T04:04:39;9.70;;;4.00;;
19903;SDS011;10114;50.970;4.962;2023-06-26T04:07:05;15.57;;;4.80;;
19903;SDS011;10114;50.970;4.962;2023-06-26T04:09:31;13.23;;;4.10;;
19903;SDS011;10114;50.970;4.962;2023-06-26T04:11:58;11.35;;;3.67;;
19903;SDS011;10114;50.970;4.962;2023-06-26T04:14:24;8.80;;;3.67;;
19903;SDS011;10114;50.970;4.962;2023-06-26T04:16:50;9.85;;;4.00;;
19903;SDS011;10114;50.970;4.962;2023-06-26T04:19:16;12.43;;;4.47;;
19903;SDS011;10114;50.970;4.962;2023-06-26T04:21:42;12.65;;;3.85;;
19903;SDS011;10114;50.970;4.962;2023-06-26T04:24:08;9.88;;;3.70;;
19903;SDS011;10114;50.970;4.962;2023-06-26T04:26:34;9.43;;;3.75;;
19903;SDS011;10114;50.970;4.962;2023-06-26T04:29:01;12.25;;;4.30;;
19903;SDS011;10114;50.970;4.962;2023-06-26T04:31:28;13.07;;;3.90;;
19903;SDS011;10114;50.970;4.962;2023-06-26T04:33:54;15.68;;;4.00;;
19903;SDS011;10114;50.970;4.962;2023-06-26T04:36:20;12.15;;;3.78;;
19903;SDS011;10114;50.970;4.962;2023-06-26T04:38:46;11.23;;;3.88;;
19903;SDS011;10114;50.970;4.962;2023-06-26T04:41:15;15.75;;;3.70;;
19903;SDS011;10114;50.970;4.962;2023-06-26T04:43:41;16.42;;;4.25;;
19903;SDS011;10114;50.970;4.962;2023-06-26T04:46:07;11.93;;;3.45;;
19903;SDS011;10114;50.970;4.962;2023-06-26T04:48:33;9.68;;;3.22;;
19903;SDS011;10114;50.970;4.962;2023-06-26T04:50:59;13.02;;;3.75;;
19903;SDS011;10114;50.970;4.962;2023-06-26T04:53:25;16.60;;;3.78;;
19903;SDS011;10114;50.970;4.962;2023-06-26T04:55:52;14.60;;;3.60;;
19903;SDS011;10114;50.970;4.962;2023-06-26T04:58:18;15.25;;;3.97;;
19903;SDS011;10114;50.970;4.962;2023-06-26T05:00:45;13.75;;;3.55;;
19903;SDS011;10114;50.970;4.962;2023-06-26T05:03:11;12.43;;;3.78;;
19903;SDS011;10114;50.970;4.962;2023-06-26T05:05:37;14.73;;;3.47;;
19903;SDS011;10114;50.970;4.962;2023-06-26T05:08:22;10.25;;;3.28;;
19903;SDS011;10114;50.970;4.962;2023-06-26T05:10:48;13.75;;;3.58;;
19903;SDS011;10114;50.970;4.962;2023-06-26T05:13:15;11.27;;;3.60;;
19903;SDS011;10114;50.970;4.962;2023-06-26T05:15:43;14.45;;;3.25;;
19903;SDS011;10114;50.970;4.962;2023-06-26T05:18:09;18.63;;;3.97;;
19903;SDS011;10114;50.970;4.962;2023-06-26T05:20:36;10.32;;;3.20;;
19903;SDS011;10114;50.970;4.962;2023-06-26T05:23:02;17.77;;;3.67;;
19903;SDS011;10114;50.970;4.962;2023-06-26T05:25:29;13.48;;;3.97;;
19903;SDS011;10114;50.970;4.962;2023-06-26T05:27:56;9.43;;;2.85;;
19903;SDS011;10114;50.970;4.962;2023-06-26T05:30:22;10.60;;;3.97;;
19903;SDS011;10114;50.970;4.962;2023-06-26T05:32:50;10.48;;;3.47;;
19903;SDS011;10114;50.970;4.962;2023-06-26T05:35:16;8.73;;;3.22;;
19903;SDS011;10114;50.970;4.962;2023-06-26T05:37:43;10.63;;;3.15;;
19903;SDS011;10114;50.970;4.962;2023-06-26T05:40:09;10.52;;;3.22;;
19903;SDS011;10114;50.970;4.962;2023-06-26T05:42:35;16.45;;;3.80;;
19903;SDS011;10114;50.970;4.962;2023-06-26T05:45:01;15.70;;;4.43;;
19903;SDS011;10114;50.970;4.962;2023-06-26T05:47:27;11.63;;;3.38;;
19903;SDS011;10114;50.970;4.962;2023-06-26T05:49:53;11.13;;;3.10;;
19903;SDS011;10114;50.970;4.962;2023-06-26T05:52:19;11.50;;;3.72;;
19903;SDS011;10114;50.970;4.962;2023-06-26T05:54:46;9.27;;;3.22;;
19903;SDS011;10114;50.970;4.962;2023-06-26T05:57:12;14.15;;;3.10;;
19903;SDS011;10114;50.970;4.962;2023-06-26T05:59:39;11.07;;;2.95;;
19903;SDS011;10114;50.970;4.962;2023-06-26T06:02:06;10.23;;;2.90;;
19903;SDS011;10114;50.970;4.962;2023-06-26T06:04:32;15.77;;;3.50;;
19903;SDS011;10114;50.970;4.962;2023-06-26T06:07:00;21.48;;;3.28;;
19903;SDS011;10114;50.970;4.962;2023-06-26T06:09:26;15.20;;;3.53;;
19903;SDS011;10114;50.970;4.962;2023-06-26T06:11:52;15.80;;;3.20;;
19903;SDS011;10114;50.970;4.962;2023-06-26T06:14:18;16.20;;;3.45;;
19903;SDS011;10114;50.970;4.962;2023-06-26T06:16:44;13.60;;;3.13;;
19903;SDS011;10114;50.970;4.962;2023-06-26T06:19:10;12.93;;;3.00;;
19903;SDS011;10114;50.970;4.962;2023-06-26T06:21:38;11.20;;;2.88;;
19903;SDS011;10114;50.970;4.962;2023-06-26T06:24:04;8.95;;;2.72;;
19903;SDS011;10114;50.970;4.962;2023-06-26T06:26:32;16.27;;;2.90;;
19903;SDS011;10114;50.970;4.962;2023-06-26T06:28:58;12.15;;;3.15;;
19903;SDS011;10114;50.970;4.962;2023-06-26T06:31:24;12.07;;;2.97;;
19903;SDS011;10114;50.970;4.962;2023-06-26T06:33:50;10.30;;;2.30;;
19903;SDS011;10114;50.970;4.962;2023-06-26T06:36:16;16.40;;;2.88;;
19903;SDS011;10114;50.970;4.962;2023-06-26T06:38:45;9.55;;;2.53;;
19903;SDS011;10114;50.970;4.962;2023-06-26T06:41:11;13.75;;;3.45;;
19903;SDS011;10114;50.970;4.962;2023-06-26T06:43:37;9.52;;;3.08;;
19903;SDS011;10114;50.970;4.962;2023-06-26T06:46:04;11.02;;;2.40;;
19903;SDS011;10114;50.970;4.962;2023-06-26T06:48:30;10.07;;;2.60;;
19903;SDS011;10114;50.970;4.962;2023-06-26T06:50:56;10.85;;;2.83;;
19903;SDS011;10114;50.970;4.962;2023-06-26T06:53:23;15.50;;;3.13;;
19903;SDS011;10114;50.970;4.962;2023-06-26T06:55:49;10.60;;;2.58;;
19903;SDS011;10114;50.970;4.962;2023-06-26T06:58:15;13.95;;;2.78;;
19903;SDS011;10114;50.970;4.962;2023-06-26T07:00:44;12.23;;;2.60;;
19903;SDS011;10114;50.970;4.962;2023-06-26T07:03:11;10.43;;;2.83;;
19903;SDS011;10114;50.970;4.962;2023-06-26T07:05:37;12.30;;;2.50;;
19903;SDS011;10114;50.970;4.962;2023-06-26T07:08:03;9.95;;;2.83;;
19903;SDS011;10114;50.970;4.962;2023-06-26T07:10:30;12.77;;;2.33;;
19903;SDS011;10114;50.970;4.962;2023-06-26T07:12:56;10.20;;;2.55;;
19903;SDS011;10114;50.970;4.962;2023-06-26T07:15:22;10.98;;;2.42;;
19903;SDS011;10114;50.970;4.962;2023-06-26T07:17:48;12.52;;;2.90;;
19903;SDS011;10114;50.970;4.962;2023-06-26T07:20:14;11.77;;;2.50;;
19903;SDS011;10114;50.970;4.962;2023-06-26T07:22:40;12.68;;;2.20;;
19903;SDS011;10114;50.970;4.962;2023-06-26T07:25:06;11.10;;;2.58;;
19903;SDS011;10114;50.970;4.962;2023-06-26T07:27:34;12.23;;;2.67;;
19903;SDS011;10114;50.970;4.962;2023-06-26T07:30:00;9.57;;;2.60;;
19903;SDS011;10114;50.970;4.962;2023-06-26T07:32:26;8.90;;;2.53;;
19903;SDS011;10114;50.970;4.962;2023-06-26T07:34:52;7.75;;;2.13;;
19903;SDS011;10114;50.970;4.962;2023-06-26T07:37:18;11.30;;;2.28;;
19903;SDS011;10114;50.970;4.962;2023-06-26T07:39:44;7.82;;;1.95;;
19903;SDS011;10114;50.970;4.962;2023-06-26T07:42:10;9.85;;;2.25;;
19903;SDS011;10114;50.970;4.962;2023-06-26T07:44:36;10.23;;;2.53;;
19903;SDS011;10114;50.970;4.962;2023-06-26T07:47:02;12.52;;;2.42;;
19903;SDS011;10114;50.970;4.962;2023-06-26T07:49:29;8.73;;;2.30;;
19903;SDS011;10114;50.970;4.962;2023-06-26T07:51:55;10.45;;;2.10;;
19903;SDS011;10114;50.970;4.962;2023-06-26T07:54:21;13.55;;;2.65;;
19903;SDS011;10114;50.970;4.962;2023-06-26T07:56:57;10.98;;;2.42;;
19903;SDS011;10114;50.970;4.962;2023-06-26T07:59:23;7.47;;;2.08;;
19903;SDS011;10114;50.970;4.962;2023-06-26T08:01:50;10.50;;;2.58;;
19903;SDS011;10114;50.970;4.962;2023-06-26T08:04:17;8.27;;;2.50;;
19903;SDS011;10114;50.970;4.962;2023-06-26T08:06:44;7.53;;;1.92;;
19903;SDS011;10114;50.970;4.962;2023-06-26T08:09:10;10.35;;;3.15;;
19903;SDS011;10114;50.970;4.962;2023-06-26T08:11:37;10.02;;;2.47;;
19903;SDS011;10114;50.970;4.962;2023-06-26T08:14:04;8.63;;;3.17;;
19903;SDS011;10114;50.970;4.962;2023-06-26T08:16:30;9.75;;;2.22;;
19903;SDS011;10114;50.970;4.962;2023-06-26T08:18:56;7.18;;;1.83;;
19903;SDS011;10114;50.970;4.962;2023-06-26T08:21:22;8.55;;;2.20;;
19903;SDS011;10114;50.970;4.962;2023-06-26T08:23:48;8.07;;;2.15;;
19903;SDS011;10114;50.970;4.962;2023-06-26T08:26:14;13.52;;;2.28;;
19903;SDS011;10114;50.970;4.962;2023-06-26T08:28:40;10.38;;;2.08;;
19903;SDS011;10114;50.970;4.962;2023-06-26T08:31:06;8.65;;;2.08;;
19903;SDS011;10114;50.970;4.962;2023-06-26T08:33:32;6.75;;;2.20;;
19903;SDS011;10114;50.970;4.962;2023-06-26T08:35:58;6.57;;;1.65;;
19903;SDS011;10114;50.970;4.962;2023-06-26T08:38:24;7.07;;;1.90;;
19903;SDS011;10114;50.970;4.962;2023-06-26T08:40:50;10.00;;;1.90;;
19903;SDS011;10114;50.970;4.962;2023-06-26T08:43:16;8.30;;;1.90;;
19903;SDS011;10114;50.970;4.962;2023-06-26T08:45:42;8.10;;;1.60;;
19903;SDS011;10114;50.970;4.962;2023-06-26T08:48:08;9.32;;;1.92;;
19903;SDS011;10114;50.970;4.962;2023-06-26T08:50:35;7.57;;;2.78;;
19903;SDS011;10114;50.970;4.962;2023-06-26T08:53:05;8.45;;;2.38;;
19903;SDS011;10114;50.970;4.962;2023-06-26T08:55:33;5.43;;;1.45;;
19903;SDS011;10114;50.970;4.962;2023-06-26T08:58:01;7.53;;;2.00;;
19903;SDS011;10114;50.970;4.962;2023-06-26T09:00:27;6.45;;;1.40;;
19903;SDS011;10114;50.970;4.962;2023-06-26T09:02:53;6.25;;;1.50;;
19903;SDS011;10114;50.970;4.962;2023-06-26T09:05:20;5.85;;;2.03;;
19903;SDS011;10114;50.970;4.962;2023-06-26T09:07:46;9.00;;;1.20;;
19903;SDS011;10114;50.970;4.962;2023-06-26T09:10:12;5.10;;;1.45;;
19903;SDS011;10114;50.970;4.962;2023-06-26T09:12:38;9.93;;;1.75;;
19903;SDS011;10114;50.970;4.962;2023-06-26T09:15:05;7.32;;;1.40;;
19903;SDS011;10114;50.970;4.962;2023-06-26T09:17:38;6.20;;;1.48;;
19903;SDS011;10114;50.970;4.962;2023-06-26T09:20:07;7.97;;;1.65;;
19903;SDS011;10114;50.970;4.962;2023-06-26T09:22:35;5.25;;;1.38;;
19903;SDS011;10114;50.970;4.962;2023-06-26T09:25:03;6.57;;;1.30;;
19903;SDS011;10114;50.970;4.962;2023-06-26T09:27:29;5.05;;;0.95;;
19903;SDS011;10114;50.970;4.962;2023-06-26T09:29:55;7.75;;;1.85;;
19903;SDS011;10114;50.970;4.962;2023-06-26T09:32:26;5.38;;;1.77;;
19903;SDS011;10114;50.970;4.962;2023-06-26T09:34:55;6.40;;;1.33;;
19903;SDS011;10114;50.970;4.962;2023-06-26T09:37:21;4.78;;;1.27;;
19903;SDS011;10114;50.970;4.962;2023-06-26T09:39:50;6.05;;;1.75;;
19903;SDS011;10114;50.970;4.962;2023-06-26T09:42:17;6.90;;;1.50;;
19903;SDS011;10114;50.970;4.962;2023-06-26T09:44:47;6.45;;;1.17;;
19903;SDS011;10114;50.970;4.962;2023-06-26T09:47:16;3.88;;;1.40;;
19903;SDS011;10114;50.970;4.962;2023-06-26T09:49:43;5.47;;;0.98;;
19903;SDS011;10114;50.970;4.962;2023-06-26T09:52:09;5.35;;;1.20;;
19903;SDS011;10114;50.970;4.962;2023-06-26T09:54:35;8.90;;;1.33;;
19903;SDS011;10114;50.970;4.962;2023-06-26T09:57:08;4.03;;;1.10;;
19903;SDS011;10114;50.970;4.962;2023-06-26T09:59:34;5.35;;;1.33;;
19903;SDS011;10114;50.970;4.962;2023-06-26T10:02:00;6.35;;;1.20;;
19903;SDS011;10114;50.970;4.962;2023-06-26T10:04:27;11.13;;;1.63;;
19903;SDS011;10114;50.970;4.962;2023-06-26T10:06:56;4.05;;;1.10;;
19903;SDS011;10114;50.970;4.962;2023-06-26T10:09:22;3.50;;;1.17;;
19903;SDS011;10114;50.970;4.962;2023-06-26T10:11:56;6.57;;;1.60;;
19903;SDS011;10114;50.970;4.962;2023-06-26T10:14:26;9.05;;;2.38;;
19903;SDS011;10114;50.970;4.962;2023-06-26T10:16:52;4.53;;;1.20;;
19903;SDS011;10114;50.970;4.962;2023-06-26T10:19:20;3.42;;;1.10;;
19903;SDS011;10114;50.970;4.962;2023-06-26T10:21:53;3.92;;;1.00;;
19903;SDS011;10114;50.970;4.962;2023-06-26T10:24:20;6.80;;;1.13;;
19903;SDS011;10114;50.970;4.962;2023-06-26T10:26:46;5.65;;;1.08;;
19903;SDS011;10114;50.970;4.962;2023-06-26T10:29:14;4.30;;;0.93;;
19903;SDS011;10114;50.970;4.962;2023-06-26T10:31:42;4.43;;;1.00;;
19903;SDS011;10114;50.970;4.962;2023-06-26T10:34:10;4.53;;;1.15;;
19903;SDS011;10114;50.970;4.962;2023-06-26T10:36:36;2.25;;;0.73;;
19903;SDS011;10114;50.970;4.962;2023-06-26T10:39:04;3.67;;;0.90;;
19903;SDS011;10114;50.970;4.962;2023-06-26T10:41:36;4.45;;;1.10;;
19903;SDS011;10114;50.970;4.962;2023-06-26T10:46:33;7.78;;;1.20;;
19903;SDS011;10114;50.970;4.962;2023-06-26T10:49:00;4.22;;;1.00;;
19903;SDS011;10114;50.970;4.962;2023-06-26T10:51:27;4.45;;;1.23;;
19903;SDS011;10114;50.970;4.962;2023-06-26T10:53:53;5.32;;;1.17;;
19903;SDS011;10114;50.970;4.962;2023-06-26T10:56:20;3.70;;;0.95;;
19903;SDS011;10114;50.970;4.962;2023-06-26T10:58:47;5.50;;;1.33;;
19903;SDS011;10114;50.970;4.962;2023-06-26T11:01:23;5.00;;;1.25;;
19903;SDS011;10114;50.970;4.962;2023-06-26T11:06:26;5.10;;;1.05;;
19903;SDS011;10114;50.970;4.962;2023-06-26T11:08:54;5.07;;;1.10;;
19903;SDS011;10114;50.970;4.962;2023-06-26T11:11:21;4.40;;;1.00;;
19903;SDS011;10114;50.970;4.962;2023-06-26T11:13:47;2.72;;;0.90;;
19903;SDS011;10114;50.970;4.962;2023-06-26T11:16:14;6.00;;;1.00;;
19903;SDS011;10114;50.970;4.962;2023-06-26T11:18:40;3.50;;;0.90;;
19903;SDS011;10114;50.970;4.962;2023-06-26T11:21:07;4.10;;;0.90;;
19903;SDS011;10114;50.970;4.962;2023-06-26T11:23:34;5.68;;;1.02;;
19903;SDS011;10114;50.970;4.962;2023-06-26T11:26:17;2.95;;;1.00;;
19903;SDS011;10114;50.970;4.962;2023-06-26T11:28:49;3.70;;;1.23;;
19903;SDS011;10114;50.970;4.962;2023-06-26T11:31:25;4.15;;;1.10;;
19903;SDS011;10114;50.970;4.962;2023-06-26T11:33:52;3.78;;;1.15;;
19903;SDS011;10114;50.970;4.962;2023-06-26T11:36:18;6.53;;;0.90;;
19903;SDS011;10114;50.970;4.962;2023-06-26T11:38:44;6.93;;;1.20;;
19903;SDS011;10114;50.970;4.962;2023-06-26T11:41:16;6.63;;;1.38;;
19903;SDS011;10114;50.970;4.962;2023-06-26T11:43:42;5.70;;;1.58;;
19903;SDS011;10114;50.970;4.962;2023-06-26T11:46:08;3.90;;;0.90;;
19903;SDS011;10114;50.970;4.962;2023-06-26T11:48:34;5.13;;;1.17;;
19903;SDS011;10114;50.970;4.962;2023-06-26T11:51:00;5.93;;;1.20;;
19903;SDS011;10114;50.970;4.962;2023-06-26T11:53:26;4.03;;;1.00;;
19903;SDS011;10114;50.970;4.962;2023-06-26T11:55:52;5.75;;;0.93;;
19903;SDS011;10114;50.970;4.962;2023-06-26T11:58:18;3.58;;;1.05;;
19903;SDS011;10114;50.970;4.962;2023-06-26T12:00:44;4.32;;;1.00;;
19903;SDS011;10114;50.970;4.962;2023-06-26T12:03:10;5.28;;;0.98;;
19903;SDS011;10114;50.970;4.962;2023-06-26T12:05:36;4.60;;;1.00;;
19903;SDS011;10114;50.970;4.962;2023-06-26T12:08:02;3.72;;;0.93;;
19903;SDS011;10114;50.970;4.962;2023-06-26T12:10:31;3.42;;;0.98;;
19903;SDS011;10114;50.970;4.962;2023-06-26T12:12:57;3.47;;;1.20;;
19903;SDS011;10114;50.970;4.962;2023-06-26T12:15:26;7.95;;;1.10;;
19903;SDS011;10114;50.970;4.962;2023-06-26T12:17:52;4.97;;;1.10;;
19903;SDS011;10114;50.970;4.962;2023-06-26T12:20:19;9.18;;;1.30;;
19903;SDS011;10114;50.970;4.962;2023-06-26T12:22:46;11.75;;;1.33;;
19903;SDS011;10114;50.970;4.962;2023-06-26T12:25:13;3.95;;;1.00;;
19903;SDS011;10114;50.970;4.962;2023-06-26T12:27:39;5.20;;;1.10;;
19903;SDS011;10114;50.970;4.962;2023-06-26T12:30:05;4.80;;;1.02;;
19903;SDS011;10114;50.970;4.962;2023-06-26T12:32:32;6.95;;;1.33;;
19903;SDS011;10114;50.970;4.962;2023-06-26T12:35:00;7.93;;;1.42;;
19903;SDS011;10114;50.970;4.962;2023-06-26T12:37:26;4.93;;;1.20;;
19903;SDS011;10114;50.970;4.962;2023-06-26T12:39:53;5.35;;;1.13;;
19903;SDS011;10114;50.970;4.962;2023-06-26T12:42:28;5.00;;;1.27;;
19903;SDS011;10114;50.970;4.962;2023-06-26T12:44:58;8.27;;;0.95;;
19903;SDS011;10114;50.970;4.962;2023-06-26T12:47:28;5.38;;;1.10;;
19903;SDS011;10114;50.970;4.962;2023-06-26T12:49:56;4.60;;;0.90;;
19903;SDS011;10114;50.970;4.962;2023-06-26T12:52:22;7.82;;;1.35;;
19903;SDS011;10114;50.970;4.962;2023-06-26T12:54:54;5.85;;;1.17;;
19903;SDS011;10114;50.970;4.962;2023-06-26T12:57:21;5.20;;;1.08;;
19903;SDS011;10114;50.970;4.962;2023-06-26T12:59:47;9.65;;;1.73;;
19903;SDS011;10114;50.970;4.962;2023-06-26T13:02:13;4.65;;;1.00;;
19903;SDS011;10114;50.970;4.962;2023-06-26T13:04:39;4.85;;;1.05;;
19903;SDS011;10114;50.970;4.962;2023-06-26T13:07:06;3.95;;;1.17;;
19903;SDS011;10114;50.970;4.962;2023-06-26T13:09:32;6.80;;;1.23;;
19903;SDS011;10114;50.970;4.962;2023-06-26T13:11:59;3.88;;;1.45;;
19903;SDS011;10114;50.970;4.962;2023-06-26T13:14:25;9.25;;;1.20;;
19903;SDS011;10114;50.970;4.962;2023-06-26T13:16:51;5.00;;;1.10;;
19903;SDS011;10114;50.970;4.962;2023-06-26T13:19:17;4.28;;;1.10;;
19903;SDS011;10114;50.970;4.962;2023-06-26T13:21:43;7.05;;;1.23;;
19903;SDS011;10114;50.970;4.962;2023-06-26T13:24:09;4.45;;;1.10;;
19903;SDS011;10114;50.970;4.962;2023-06-26T13:26:35;3.50;;;1.10;;
19903;SDS011;10114;50.970;4.962;2023-06-26T13:29:01;5.75;;;1.30;;
19903;SDS011;10114;50.970;4.962;2023-06-26T13:31:28;4.90;;;1.48;;
19903;SDS011;10114;50.970;4.962;2023-06-26T13:33:56;6.00;;;1.58;;
19903;SDS011;10114;50.970;4.962;2023-06-26T13:36:23;6.68;;;1.15;;
19903;SDS011;10114;50.970;4.962;2023-06-26T13:38:49;4.25;;;1.00;;
19903;SDS011;10114;50.970;4.962;2023-06-26T13:41:21;5.43;;;1.15;;
19903;SDS011;10114;50.970;4.962;2023-06-26T13:43:47;7.22;;;1.63;;
19903;SDS011;10114;50.970;4.962;2023-06-26T13:46:13;4.25;;;1.33;;
19903;SDS011;10114;50.970;4.962;2023-06-26T13:48:39;5.18;;;1.30;;
19903;SDS011;10114;50.970;4.962;2023-06-26T13:51:05;4.47;;;1.27;;
19903;SDS011;10114;50.970;4.962;2023-06-26T13:53:31;3.50;;;1.17;;
19903;SDS011;10114;50.970;4.962;2023-06-26T13:55:57;7.25;;;1.38;;
19903;SDS011;10114;50.970;4.962;2023-06-26T13:58:23;7.47;;;1.40;;
19903;SDS011;10114;50.970;4.962;2023-06-26T14:00:52;5.85;;;1.17;;
19903;SDS011;10114;50.970;4.962;2023-06-26T14:03:18;4.45;;;1.05;;
19903;SDS011;10114;50.970;4.962;2023-06-26T14:05:44;6.43;;;1.50;;
19903;SDS011;10114;50.970;4.962;2023-06-26T14:08:10;5.03;;;1.30;;
19903;SDS011;10114;50.970;4.962;2023-06-26T14:10:36;6.85;;;1.20;;
19903;SDS011;10114;50.970;4.962;2023-06-26T14:13:03;3.05;;;1.00;;
19903;SDS011;10114;50.970;4.962;2023-06-26T14:15:29;5.63;;;1.67;;
19903;SDS011;10114;50.970;4.962;2023-06-26T14:17:56;6.35;;;1.45;;
19903;SDS011;10114;50.970;4.962;2023-06-26T14:20:22;4.80;;;1.25;;
19903;SDS011;10114;50.970;4.962;2023-06-26T14:22:48;4.47;;;1.15;;
19903;SDS011;10114;50.970;4.962;2023-06-26T14:25:14;4.53;;;1.35;;
19903;SDS011;10114;50.970;4.962;2023-06-26T14:27:40;4.68;;;1.10;;
19903;SDS011;10114;50.970;4.962;2023-06-26T14:30:07;4.50;;;1.42;;
19903;SDS011;10114;50.970;4.962;2023-06-26T14:32:33;5.03;;;1.23;;
19903;SDS011;10114;50.970;4.962;2023-06-26T14:35:00;6.30;;;1.55;;
19903;SDS011;10114;50.970;4.962;2023-06-26T14:37:26;4.30;;;1.20;;
19903;SDS011;10114;50.970;4.962;2023-06-26T14:39:52;3.88;;;1.05;;
19903;SDS011;10114;50.970;4.962;2023-06-26T14:42:18;8.43;;;1.40;;
19903;SDS011;10114;50.970;4.962;2023-06-26T14:44:44;4.22;;;1.30;;
19903;SDS011;10114;50.970;4.962;2023-06-26T14:47:13;5.35;;;1.40;;
19903;SDS011;10114;50.970;4.962;2023-06-26T14:49:39;4.65;;;1.50;;
19903;SDS011;10114;50.970;4.962;2023-06-26T14:52:05;6.55;;;1.40;;
19903;SDS011;10114;50.970;4.962;2023-06-26T14:54:31;4.63;;;1.30;;